Time;durP1;ratioP1;P1;durP2;ratioP2;P2;SDS_P1;SDS_P2;PMS_P1;PMS_P2;Temp;Humidity;BMP_temperature;BMP_pressure;BME280_temperature;BME280_humidity;BME280_pressure;Samples;Min_cycle;Max_cycle;Signal;HPM_P1;HPM_P2
2022/06/22 00:03:38;;;;;;;7.60;3.40;;;;;;;14.84;80.07;100411.75;4956544;59;1139209;-75
2022/06/22 00:08:46;;;;;;;3.97;2.97;;;;;;;14.81;80.16;100408.92;4960860;59;1139282;-76
2022/06/22 00:13:57;;;;;;;5.07;3.13;;;;;;;14.72;80.39;100406.64;4961188;59;1139261;-74
2022/06/22 00:19:19;;;;;;;6.97;3.67;;;;;;;14.66;80.10;100404.59;4960963;59;1139307;-74
2022/06/22 00:24:29;;;;;;;8.10;3.70;;;;;;;14.64;80.04;100420.36;4961632;59;1139148;-73
2022/06/22 00:29:38;;;;;;;5.83;4.00;;;;;;;14.09;79.43;100417.56;4961731;59;1139023;-73
2022/06/22 00:34:44;;;;;;;9.13;3.93;;;;;;;13.53;80.66;100418.36;4978640;58;1139110;-73
2022/06/22 00:39:59;;;;;;;3.60;2.00;;;;;;;13.24;81.76;100417.52;4981210;59;1139254;-74
2022/06/22 00:45:11;;;;;;;2.73;1.80;;;;;;;13.01;82.15;100427.00;4980853;58;1139040;-73
2022/06/22 00:50:32;;;;;;;14.53;8.27;;;;;;;12.79;83.40;100422.43;4978138;58;1139074;-75
2022/06/22 00:55:42;;;;;;;19.10;9.33;;;;;;;12.96;85.38;100427.09;4971923;59;1141172;-76
2022/06/22 01:01:11;;;;;;;5.73;3.43;;;;;;;13.25;85.88;100436.45;4980437;59;1141158;-74
2022/06/22 01:06:23;;;;;;;18.17;9.80;;;;;;;13.43;85.85;100436.62;4980732;59;1137005;-75
2022/06/22 01:17:03;;;;;;;19.27;9.37;;;;;;;13.27;85.24;100447.78;4981172;59;1139096;-75
2022/06/22 01:22:36;;;;;;;16.67;8.57;;;;;;;13.17;85.64;100432.30;4981115;59;1139062;-75
2022/06/22 01:27:46;;;;;;;4.53;3.90;;;;;;;13.35;86.42;100430.66;4909199;59;1137054;-75
2022/06/22 01:32:52;;;;;;;5.93;2.83;;;;;;;13.53;86.84;100442.76;4936521;59;1256770;-74
2022/06/22 01:37:59;;;;;;;2.50;2.30;;;;;;;13.47;85.66;100440.65;4883136;60;1139013;-74
2022/06/22 01:43:12;;;;;;;6.67;1.80;;;;;;;13.26;85.50;100440.30;4890316;59;1139370;-74
2022/06/22 01:48:31;;;;;;;6.73;2.43;;;;;;;13.33;86.55;100440.58;5030730;58;1139250;-74
2022/06/22 01:53:50;;;;;;;3.20;1.63;;;;;;;13.48;86.88;100437.86;4821982;60;1139198;-75
2022/06/22 01:59:24;;;;;;;2.10;1.50;;;;;;;13.62;86.79;100435.27;4796935;61;1139214;-74
2022/06/22 02:04:41;;;;;;;;;;;;;;;13.41;85.26;100448.70;4771123;60;1139197;-74
2022/06/22 02:09:57;;;;;;;4.03;2.07;;;;;;;13.07;85.61;100445.55;4890304;60;976322;-75
2022/06/22 02:15:10;;;;;;;7.83;2.00;;;;;;;12.94;85.09;100438.33;4887919;60;1136827;-75
2022/06/22 02:20:33;;;;;;;2.65;1.77;;;;;;;12.89;84.85;100441.86;4949780;59;1139168;-74
2022/06/22 02:25:46;;;;;;;2.17;1.97;;;;;;;12.89;85.42;100444.03;5065675;58;1139036;-74
2022/06/22 02:30:53;;;;;;;6.83;2.00;;;;;;;12.86;85.42;100451.41;4951371;58;1139053;-74
2022/06/22 02:36:01;;;;;;;9.17;2.40;;;;;;;12.69;85.53;100444.94;4891367;60;1139030;-74
2022/06/22 02:46:35;;;;;;;9.13;3.13;;;;;;;12.87;86.42;100444.65;5049505;58;1136991;-75
2022/06/22 02:51:45;;;;;;;7.43;2.40;;;;;;;13.03;86.65;100428.20;5081643;57;1137085;-75
2022/06/22 02:57:01;;;;;;;5.58;3.10;;;;;;;13.15;86.43;100434.25;5145580;57;1136918;-75
2022/06/22 03:02:09;;;;;;;3.13;2.40;;;;;;;13.18;85.77;100438.81;5141887;57;1136917;-74
2022/06/22 03:07:16;;;;;;;6.77;2.83;;;;;;;12.95;85.10;100436.02;5145849;57;1136958;-74
2022/06/22 03:12:22;;;;;;;3.10;2.43;;;;;;;12.67;85.21;100441.60;5127175;57;1137221;-74
2022/06/22 03:17:36;;;;;;;3.47;2.00;;;;;;;12.53;85.97;100441.45;5048808;57;1136841;-75
2022/06/22 03:22:58;;;;;;;3.77;2.30;;;;;;;12.63;87.16;100434.88;5045693;57;1136968;-74
2022/06/22 03:28:09;;;;;;;4.17;2.00;;;;;;;12.71;86.96;100448.78;5059966;57;1136972;-74
2022/06/22 03:33:20;;;;;;;4.43;2.97;;;;;;;12.72;87.57;100444.67;5093161;57;1134866;-75
2022/06/22 03:38:39;;;;;;;5.33;2.50;;;;;;;12.84;88.09;100430.80;5052604;58;1139048;-73
2022/06/22 03:43:49;;;;;;;3.73;2.37;;;;;;;12.79;88.16;100429.91;5058462;57;1139102;-74
2022/06/22 03:49:08;;;;;;;6.17;3.23;;;;;;;12.82;89.49;100430.97;5034871;58;1139088;-73
2022/06/22 03:54:21;;;;;;;3.23;2.10;;;;;;;12.97;90.09;100426.95;4990747;58;1139346;-74
2022/06/22 03:59:29;;;;;;;7.30;2.50;;;;;;;13.07;89.46;100433.59;4978029;58;1139314;-74
2022/06/22 04:04:34;;;;;;;5.40;3.00;;;;;;;12.95;89.61;100426.24;4919522;59;1139105;-74
2022/06/22 04:09:40;;;;;;;4.53;2.70;;;;;;;12.93;90.04;100430.00;4936569;58;1139044;-74
2022/06/22 04:15:16;;;;;;;12.70;3.53;;;;;;;12.91;90.52;100434.61;5058872;58;1139027;-74
2022/06/22 04:20:52;;;;;;;5.43;2.80;;;;;;;13.05;91.52;100443.51;5058748;58;1141162;-73
2022/06/22 04:26:19;;;;;;;4.40;2.50;;;;;;;13.24;92.24;100434.77;5058816;58;1139005;-74
2022/06/22 04:31:32;;;;;;;6.27;2.57;;;;;;;13.42;92.15;100438.44;4991747;58;1139155;-74
2022/06/22 04:36:43;;;;;;;7.40;2.40;;;;;;;13.58;92.20;100449.34;4968408;59;1138999;-74
2022/06/22 04:41:50;;;;;;;6.80;2.43;;;;;;;13.60;92.08;100442.05;4980875;59;1139049;-74
2022/06/22 04:47:01;;;;;;;6.10;2.83;;;;;;;13.62;92.35;100433.94;4985785;59;1136965;-74
2022/06/22 04:52:18;;;;;;;3.73;2.27;;;;;;;13.73;91.91;100435.14;4980660;59;1137008;-74
2022/06/22 04:57:37;;;;;;;6.30;2.50;;;;;;;13.78;91.81;100436.02;4916716;59;1137070;-74
2022/06/22 05:02:46;;;;;;;9.07;3.40;;;;;;;13.81;92.15;100438.41;4903121;60;1137337;-74
2022/06/22 05:07:58;;;;;;;6.23;2.83;;;;;;;13.91;92.08;100440.55;5036089;58;1137017;-74
2022/06/22 05:13:20;;;;;;;7.00;3.70;;;;;;;14.11;92.69;100442.69;5080505;58;1137043;-74
2022/06/22 05:18:38;;;;;;;5.67;3.30;;;;;;;14.25;92.62;100440.41;5074124;58;1137098;-74
2022/06/22 05:23:49;;;;;;;7.33;3.53;;;;;;;14.41;92.85;100439.34;5046837;58;1140548;-74
2022/06/22 05:29:02;;;;;;;6.97;3.43;;;;;;;14.58;92.76;100436.41;5053622;58;1139331;-74
2022/06/22 05:34:21;;;;;;;10.05;3.58;;;;;;;14.76;92.78;100427.16;5032149;58;1139117;-74
2022/06/22 05:39:27;;;;;;;6.10;2.83;;;;;;;14.96;92.95;100429.23;4944483;59;1141367;-74
2022/06/22 05:44:34;;;;;;;7.70;2.43;;;;;;;15.20;92.92;100437.97;4921666;59;1139205;-74
2022/06/22 05:49:50;;;;;;;5.80;2.53;;;;;;;15.43;92.73;100443.19;4843608;60;1139071;-74
2022/06/22 05:55:01;;;;;;;7.00;2.50;;;;;;;15.64;92.19;100446.92;4897685;60;1139119;-74
2022/06/22 06:00:24;;;;;;;5.30;2.33;;;;;;;15.82;91.58;100457.08;4867948;60;1139009;-75
2022/06/22 06:05:52;;;;;;;5.93;2.07;;;;;;;16.06;90.70;100461.75;4744831;61;1139147;-75
2022/06/22 06:10:59;;;;;;;5.37;1.97;;;;;;;16.22;90.67;100455.20;4787651;61;1139120;-74
2022/06/22 06:16:08;;;;;;;9.37;2.60;;;;;;;16.41;90.29;100456.82;4766067;62;1139295;-74
2022/06/22 06:21:24;;;;;;;7.53;2.60;;;;;;;16.57;88.77;100451.58;4829438;61;1139255;-75
2022/06/22 06:32:38;;;;;;;6.47;3.17;;;;;;;16.86;87.52;100457.91;4757267;62;1137103;-75
2022/06/22 06:37:48;;;;;;;3.87;1.90;;;;;;;17.03;87.79;100460.98;4696352;62;1137076;-75
2022/06/22 06:43:01;;;;;;;4.57;2.00;;;;;;;17.21;86.73;100456.87;4761216;61;1137420;-75
2022/06/22 06:48:11;;;;;;;5.17;1.60;;;;;;;17.43;83.66;100470.94;4854805;60;1136999;-75
2022/06/22 06:53:33;;;;;;;3.27;1.70;;;;;;;17.52;83.76;100470.46;4864388;60;1137047;-74
2022/06/22 06:58:49;;;;;;;2.60;1.50;;;;;;;17.68;82.55;100467.84;4869102;60;1137130;-74
2022/06/22 07:04:07;;;;;;;6.13;1.57;;;;;;;17.91;82.36;100474.69;4918391;60;1134961;-75
2022/06/22 07:09:22;;;;;;;1.67;1.40;;;;;;;18.02;79.45;100470.36;4839560;60;1138960;-76
2022/06/22 07:14:40;;;;;;;3.55;1.55;;;;;;;18.14;79.22;100472.19;4765930;60;1139372;-75
2022/06/22 07:19:50;;;;;;;4.17;1.27;;;;;;;18.29;77.83;100475.84;4892619;59;1139080;-75
2022/06/22 07:25:19;;;;;;;8.73;1.53;;;;;;;18.41;73.15;100473.14;4805448;61;1139367;-73
2022/06/22 07:30:44;;;;;;;2.30;1.30;;;;;;;18.54;73.26;100481.97;4799627;60;1139015;-72
2022/06/22 07:36:06;;;;;;;3.50;1.00;;;;;;;18.73;74.23;100470.07;4800386;60;1139094;-73
2022/06/22 07:41:20;;;;;;;7.17;1.90;;;;;;;18.90;72.28;100467.16;4888585;59;1138978;-72
2022/06/22 07:46:57;;;;;;;2.92;1.35;;;;;;;19.09;72.92;100472.61;4907296;59;1139513;-74
2022/06/22 07:52:06;;;;;;;4.42;1.50;;;;;;;19.40;73.83;100469.09;4865502;59;1139085;-73
2022/06/22 07:57:19;;;;;;;2.12;1.42;;;;;;;19.63;72.04;100478.84;4867860;59;1139585;-73
2022/06/22 08:02:33;;;;;;;3.92;2.12;;;;;;;19.74;71.25;100479.42;4919933;59;1139232;-74
2022/06/22 08:07:58;;;;;;;3.58;1.45;;;;;;;19.84;70.08;100470.64;4944520;59;1136995;-72
2022/06/22 08:13:13;;;;;;;3.20;1.75;;;;;;;19.99;69.93;100469.67;4888508;59;1136848;-72
2022/06/22 08:18:21;;;;;;;3.58;1.67;;;;;;;20.22;70.32;100480.87;4869051;59;1137146;-72
2022/06/22 08:23:32;;;;;;;5.35;1.65;;;;;;;20.10;68.29;100486.36;4868490;59;1136438;-73
2022/06/22 08:28:40;;;;;;;3.80;1.47;;;;;;;20.10;69.65;100479.64;4878189;60;1137289;-71
2022/06/22 08:33:53;;;;;;;2.65;1.20;;;;;;;20.29;70.41;100473.26;4879854;59;1136945;-76
2022/06/22 08:39:15;;;;;;;;;;;;;;;20.46;68.34;100467.24;4915311;59;1136964;-72
2022/06/22 08:44:34;;;;;;;5.20;1.40;;;;;;;20.71;70.58;100462.42;4974323;59;976348;-74
2022/06/22 08:50:14;;;;;;;5.73;1.20;;;;;;;20.99;68.54;100455.85;4999452;57;1137495;-74
2022/06/22 08:55:28;;;;;;;1.65;1.00;;;;;;;21.14;64.77;100461.20;5063129;57;1138899;-73
2022/06/22 09:00:47;;;;;;;1.55;1.05;;;;;;;21.20;63.07;100468.56;5055711;58;1139674;-73
2022/06/22 09:06:15;;;;;;;14.25;1.65;;;;;;;21.26;63.45;100466.44;5062809;57;1138903;-72
2022/06/22 09:11:43;;;;;;;5.10;1.30;;;;;;;21.54;65.69;100457.14;5055893;57;1140980;-72
2022/06/22 09:17:03;;;;;;;1.05;1.00;;;;;;;21.87;63.96;100460.13;5056538;57;1139031;-73
2022/06/22 09:22:23;;;;;;;3.75;1.20;;;;;;;22.05;62.96;100452.44;5062855;57;1139092;-73
2022/06/22 09:28:00;;;;;;;2.75;1.52;;;;;;;22.39;65.46;100452.49;5063124;57;1139267;-74
2022/06/22 09:33:13;;;;;;;4.30;1.20;;;;;;;22.57;61.42;100439.02;4939111;59;1137272;-73
2022/06/22 09:38:50;;;;;;;2.95;1.30;;;;;;;22.57;61.37;100449.80;4938715;57;1137308;-73
2022/06/22 09:44:36;;;;;;;3.05;1.12;;;;;;;22.61;62.02;100442.45;4880452;58;1136948;-73
2022/06/22 09:49:55;;;;;;;5.10;1.43;;;;;;;22.78;61.22;100433.03;4870642;60;1138998;-73
2022/06/22 10:00:54;;;;;;;1.50;1.00;;;;;;;22.80;58.97;100411.27;4965954;59;1139234;-72
2022/06/22 10:06:24;;;;;;;2.20;1.10;;;;;;;23.11;59.45;100414.80;4876874;60;1139449;-71
2022/06/22 10:11:50;;;;;;;4.10;1.02;;;;;;;23.22;58.84;100411.50;4875156;60;1139017;-73
2022/06/22 10:17:23;;;;;;;3.20;1.12;;;;;;;23.28;56.44;100418.80;4856312;60;1139156;-73
2022/06/22 10:23:03;;;;;;;5.50;1.13;;;;;;;23.20;56.97;100422.20;4829645;61;1139296;-73
2022/06/22 10:28:18;;;;;;;2.72;1.17;;;;;;;23.08;55.75;100414.68;4862189;60;1137049;-75
2022/06/22 10:33:59;;;;;;;7.67;1.40;;;;;;;23.28;58.38;100412.56;4868678;60;1137339;-73
2022/06/22 10:39:39;;;;;;;3.90;1.75;;;;;;;23.33;57.13;100410.92;4829926;60;1136853;-73
2022/06/22 10:45:14;;;;;;;2.37;1.35;;;;;;;23.61;59.16;100412.66;4799475;62;21189;-73
2022/06/22 10:50:49;;;;;;;3.02;0.90;;;;;;;23.91;59.33;100413.08;4784031;61;1134841;-74
2022/06/22 10:56:42;;;;;;;3.25;1.50;;;;;;;23.99;54.23;100400.17;4857131;60;1139238;-74
2022/06/22 11:02:04;;;;;;;1.72;1.47;;;;;;;24.14;54.90;100399.43;4838463;60;1138979;-74
2022/06/22 11:07:57;;;;;;;2.37;1.37;;;;;;;24.14;53.73;100395.38;4898938;58;1139344;-73
2022/06/22 11:13:22;;;;;;;4.33;0.82;;;;;;;24.14;53.73;100395.38;4972157;58;1138985;-72
2022/06/22 11:18:55;;;;;;;3.67;1.27;;;;;;;23.93;52.97;100417.76;4965491;59;1137006;-73
2022/06/22 11:24:29;;;;;;;1.07;0.87;;;;;;;24.16;55.83;100418.14;4942394;59;1136945;-73
2022/06/22 11:42:09;;;;;;;2.25;1.00;;;;;;;24.47;55.83;100412.91;4741055;61;1134797;-72
2022/06/22 11:47:27;;;;;;;2.47;1.27;;;;;;;25.00;55.89;100402.45;4863489;60;1138971;-73
2022/06/22 11:52:50;;;;;;;5.12;1.17;;;;;;;25.28;53.05;100408.86;4751912;60;1139071;-73
2022/06/22 11:58:10;;;;;;;2.52;1.30;;;;;;;25.20;49.68;100403.19;4680058;63;1139130;-73
2022/06/22 12:03:43;;;;;;;4.28;1.20;;;;;;;25.25;51.65;100407.41;4716959;60;1139007;-73
2022/06/22 12:09:14;;;;;;;3.05;0.57;;;;;;;25.45;53.22;100395.11;4779159;61;1137147;-73
2022/06/22 12:15:14;;;;;;;4.25;0.75;;;;;;;25.61;49.74;100403.22;4777452;60;1137172;-73
2022/06/22 12:20:52;;;;;;;5.27;1.20;;;;;;;25.56;50.28;100403.34;4781131;61;1139146;-72
2022/06/22 12:26:12;;;;;;;1.32;1.20;;;;;;;25.50;47.30;100406.13;4635433;63;1139296;-72
2022/06/22 12:31:22;;;;;;;3.20;0.95;;;;;;;25.41;47.14;100406.06;4633225;62;1139141;-73
2022/06/22 12:36:50;;;;;;;3.00;1.27;;;;;;;25.15;45.71;100403.83;4675200;61;1139122;-73
2022/06/22 12:42:23;;;;;;;3.90;1.02;;;;;;;25.27;48.51;100392.30;4611156;62;1139188;-73
2022/06/22 12:47:47;;;;;;;;;;;;;;;25.49;46.72;100390.92;4654314;62;1139407;-73
2022/06/22 12:52:57;;;;;;;3.95;1.07;;;;;;;25.57;46.79;100393.34;4649843;62;976636;-73
2022/06/22 12:58:16;;;;;;;1.98;1.02;;;;;;;25.64;46.31;100387.92;4624755;64;1137043;-73
2022/06/22 13:03:41;;;;;;;4.22;1.02;;;;;;;25.82;44.73;100387.42;4793417;61;1139098;-73
2022/06/22 13:08:57;;;;;;;3.17;1.30;;;;;;;25.97;43.04;100384.41;4749200;61;1136908;-73
2022/06/22 13:14:44;;;;;;;2.27;1.15;;;;;;;26.04;44.23;100378.91;4725666;62;1137161;-73
2022/06/22 13:20:21;;;;;;;3.50;0.90;;;;;;;26.09;44.33;100369.59;4542242;64;1137070;-74
2022/06/22 13:25:49;;;;;;;4.33;0.90;;;;;;;26.05;45.21;100376.50;4485678;65;1139206;-73
2022/06/22 13:31:35;;;;;;;3.83;1.07;;;;;;;26.16;43.78;100372.52;4518655;64;1139246;-73
2022/06/22 13:37:01;;;;;;;2.58;1.75;;;;;;;26.23;41.97;100361.09;5474620;53;46290;-72
2022/06/22 13:42:23;;;;;;;1.55;0.80;;;;;;;26.28;42.92;100356.33;5249373;55;1134897;-72
2022/06/22 13:47:45;;;;;;;3.08;1.52;;;;;;;26.45;43.60;100352.52;5233644;55;1139075;-72
2022/06/22 13:52:54;;;;;;;2.62;0.72;;;;;;;26.52;43.88;100339.20;5179638;56;1139104;-72
2022/06/22 13:58:26;;;;;;;3.25;1.20;;;;;;;26.73;43.89;100339.78;5233065;56;1138989;-72
2022/06/22 14:03:43;;;;;;;1.40;0.97;;;;;;;26.74;41.18;100340.05;5233198;55;1139168;-73
2022/06/22 14:09:17;;;;;;;2.92;1.00;;;;;;;26.70;40.66;100336.99;5227393;55;1136952;-72
2022/06/22 14:14:46;;;;;;;4.87;1.00;;;;;;;26.75;40.49;100333.57;5025382;58;1137142;-72
2022/06/22 14:19:59;;;;;;;2.47;1.10;;;;;;;26.79;40.97;100329.34;4812356;61;1137184;-72
2022/06/22 14:25:19;;;;;;;7.55;1.60;;;;;;;26.82;39.17;100329.72;4787714;61;1137094;-72
2022/06/22 14:30:38;;;;;;;4.12;1.35;;;;;;;26.87;40.68;100325.80;4740687;61;1135113;-71
2022/06/22 14:36:03;;;;;;;2.93;1.17;;;;;;;27.03;40.42;100331.14;4729500;62;1139341;-73
2022/06/22 14:41:28;;;;;;;2.83;1.37;;;;;;;27.04;40.86;100320.55;4794468;61;1139079;-72
2022/06/22 14:46:50;;;;;;;3.33;1.47;;;;;;;26.97;39.97;100321.20;4852159;58;1139147;-74
2022/06/22 14:52:18;;;;;;;5.45;3.58;;;;;;;27.03;39.76;100321.64;4887277;59;1139268;-73
2022/06/22 14:57:48;;;;;;;2.35;1.37;;;;;;;26.95;39.30;100309.73;5003462;57;1139218;-73
2022/06/22 15:03:20;;;;;;;4.33;1.57;;;;;;;27.00;40.15;100306.34;5069088;57;1139035;-73
2022/06/22 15:08:52;;;;;;;2.15;1.35;;;;;;;26.80;40.10;100305.23;5062248;56;1139256;-72
2022/06/22 15:14:06;;;;;;;2.35;1.10;;;;;;;26.77;40.20;100297.02;5187053;56;1136860;-73
2022/06/22 15:19:24;;;;;;;2.87;1.10;;;;;;;26.67;40.34;100300.81;5228601;56;1137233;-74
2022/06/22 15:24:54;;;;;;;1.65;1.10;;;;;;;26.62;40.68;100296.59;5299672;55;1136925;-73
2022/06/22 15:30:07;;;;;;;3.45;1.60;;;;;;;26.85;40.87;100293.16;5301402;55;1136992;-73
2022/06/22 15:35:40;;;;;;;2.27;1.15;;;;;;;26.86;42.01;100292.94;5225822;55;1136986;-74
2022/06/22 15:41:05;;;;;;;6.83;1.40;;;;;;;26.96;40.72;100281.02;5216068;55;1138998;-73
2022/06/22 15:46:19;;;;;;;1.20;1.10;;;;;;;26.89;40.11;100284.30;5218944;56;1139008;-74
2022/06/22 15:51:29;;;;;;;4.20;1.20;;;;;;;26.95;40.71;100283.95;5216235;56;1139283;-73
2022/06/22 15:57:00;;;;;;;2.35;1.00;;;;;;;26.85;39.27;100280.95;5218527;56;1138984;-72
2022/06/22 16:02:35;;;;;;;4.15;1.47;;;;;;;26.92;39.17;100280.30;5220452;56;1139097;-76
2022/06/22 16:07:56;;;;;;;4.45;1.27;;;;;;;26.98;38.95;100277.23;5214128;56;1139341;-73
2022/06/22 16:18:53;;;;;;;2.17;1.17;;;;;;;26.99;39.14;100275.66;5116396;57;1139033;-73
2022/06/22 16:24:22;;;;;;;2.47;1.20;;;;;;;26.96;39.86;100279.66;5206715;56;1139397;-74
2022/06/22 16:29:36;;;;;;;4.25;2.10;;;;;;;26.87;39.91;100278.84;5241042;56;1137169;-73
2022/06/22 16:35:04;;;;;;;2.20;1.40;;;;;;;26.93;39.35;100274.68;5233525;55;1136970;-72
2022/06/22 16:40:40;;;;;;;5.45;0.98;;;;;;;27.08;40.68;100272.89;5048459;58;1136996;-74
2022/06/22 16:46:19;;;;;;;2.92;1.27;;;;;;;27.18;38.80;100269.09;5184746;56;1136826;-74
2022/06/22 16:51:37;;;;;;;1.22;1.12;;;;;;;27.01;38.24;100265.92;5240496;56;21608;-74
2022/06/22 16:56:46;;;;;;;4.00;1.10;;;;;;;26.86;38.61;100264.44;5241417;56;21508;-74
2022/06/22 17:02:06;;;;;;;2.15;1.40;;;;;;;26.85;39.52;100256.53;5241433;56;21146;-74
2022/06/22 17:07:31;;;;;;;3.20;2.00;;;;;;;26.76;38.26;100255.18;5241020;56;21198;-76
2022/06/22 17:12:40;;;;;;;3.05;2.25;;;;;;;26.75;39.02;100264.37;5157885;57;21195;-76
2022/06/22 17:17:52;;;;;;;2.85;1.17;;;;;;;26.67;39.59;100272.33;5126659;57;21228;-75
2022/06/22 17:23:12;;;;;;;5.95;1.40;;;;;;;26.63;39.55;100265.17;5241441;56;21136;-75
2022/06/22 17:28:46;;;;;;;4.33;1.20;;;;;;;26.50;39.56;100270.78;5241404;56;21144;-75
2022/06/22 17:34:17;;;;;;;1.95;1.10;;;;;;;26.53;39.71;100261.36;5233528;56;21176;-76
2022/06/22 17:39:36;;;;;;;2.45;1.90;;;;;;;26.47;39.31;100259.03;5214815;56;21148;-74
2022/06/22 17:45:10;;;;;;;5.40;2.00;;;;;;;26.47;39.24;100268.52;5190938;56;21450;-77
2022/06/22 17:50:59;;;;;;;2.65;1.20;;;;;;;26.50;39.45;100262.64;5226421;56;21625;-76
2022/06/22 17:56:24;;;;;;;4.37;2.90;;;;;;;26.43;39.41;100268.67;5225814;56;21954;-77
2022/06/22 18:01:47;;;;;;;3.92;2.17;;;;;;;26.34;39.44;100273.29;5225588;56;21679;-75
2022/06/22 18:06:57;;;;;;;1.62;1.50;;;;;;;26.27;39.69;100277.42;5224221;56;21743;-77
2022/06/22 18:12:09;;;;;;;1.60;1.12;;;;;;;26.20;40.14;100276.66;5195553;56;21471;-74
2022/06/22 18:17:20;;;;;;;2.25;1.07;;;;;;;26.16;40.10;100278.99;5134942;56;1132788;-75
2022/06/22 18:22:45;;;;;;;3.87;1.02;;;;;;;26.12;41.26;100290.01;5174317;57;1136965;-74
2022/06/22 18:28:04;;;;;;;2.45;1.52;;;;;;;26.00;41.55;100293.67;5186244;57;1137133;-76
2022/06/22 18:33:48;;;;;;;5.05;1.50;;;;;;;25.97;43.17;100296.33;5225724;56;1137149;-74
2022/06/22 18:44:57;;;;;;;12.15;1.77;;;;;;;25.64;45.81;100303.42;5129201;56;1141254;-73
2022/06/22 18:50:31;;;;;;;10.82;2.42;;;;;;;25.40;46.18;100300.98;5249640;56;1141083;-76
2022/06/22 18:55:48;;;;;;;26.30;4.60;;;;;;;25.27;46.99;100299.74;5238587;56;1141045;-75
2022/06/22 19:01:04;;;;;;;21.73;3.65;;;;;;;25.17;47.31;100311.06;5282967;55;1141124;-77
2022/06/22 19:06:14;;;;;;;30.40;4.35;;;;;;;25.14;47.78;100310.67;5269528;55;1141100;-74
2022/06/22 19:11:28;;;;;;;26.97;4.75;;;;;;;25.05;48.36;100308.77;5314089;55;1141302;-76
2022/06/22 19:17:11;;;;;;;23.65;11.65;;;;;;;25.00;49.38;100323.46;5315325;55;1141217;-76
2022/06/22 19:22:40;;;;;;;34.03;13.98;;;;;;;24.72;50.34;100333.27;5233926;55;1141086;-74
2022/06/22 19:27:56;;;;;;;37.20;11.95;;;;;;;24.57;51.58;100334.06;5226863;56;1141293;-74
2022/06/22 19:33:13;;;;;;;19.98;5.85;;;;;;;24.60;52.59;100332.78;5226165;56;1141161;-74
2022/06/22 19:38:48;;;;;;;11.33;4.30;;;;;;;24.57;52.95;100342.18;5240639;55;1139258;-75
2022/06/22 19:44:30;;;;;;;10.60;3.10;;;;;;;24.40;53.28;100341.83;5298419;55;1141126;-74
2022/06/22 19:50:12;;;;;;;9.90;2.60;;;;;;;24.19;54.65;100344.23;5171353;56;1141124;-72
2022/06/22 19:55:25;;;;;;;9.00;2.90;;;;;;;23.97;55.81;100344.20;5218916;56;1138991;-73
2022/06/22 20:00:34;;;;;;;6.80;2.12;;;;;;;23.56;55.93;100347.12;5218980;56;1139062;-74
2022/06/22 20:05:50;;;;;;;5.00;2.85;;;;;;;23.29;55.98;100350.30;5210133;56;1139202;-74
2022/06/22 20:11:00;;;;;;;10.55;2.50;;;;;;;23.28;57.12;100351.84;5148741;56;1139246;-74
2022/06/22 20:16:29;;;;;;;10.47;2.23;;;;;;;23.25;57.25;100360.34;5143083;56;1141117;-74
2022/06/22 20:21:47;;;;;;;7.17;4.50;;;;;;;23.20;57.25;100366.37;5169450;56;1141375;-74
2022/06/22 20:27:21;;;;;;;15.47;5.33;;;;;;;23.18;56.99;100369.80;5177171;56;1139033;-74
2022/06/22 20:32:59;;;;;;;7.33;4.42;;;;;;;22.99;57.15;100381.36;5177109;56;1139013;-75
2022/06/22 20:38:08;;;;;;;13.53;5.28;;;;;;;22.84;57.84;100382.03;5186343;56;1136938;-74
2022/06/22 20:43:39;;;;;;;13.45;4.33;;;;;;;22.70;58.33;100386.00;5154856;57;1139016;-74
2022/06/22 20:49:13;;;;;;;7.25;2.50;;;;;;;22.49;58.67;100387.44;5135515;57;1139045;-75
2022/06/22 20:54:26;;;;;;;4.70;2.50;;;;;;;22.41;59.43;100404.62;5135511;57;1139131;-75
2022/06/22 21:00:02;;;;;;;12.47;3.60;;;;;;;22.37;59.63;100397.13;5168365;56;1139558;-75
2022/06/22 21:05:29;;;;;;;11.55;3.37;;;;;;;22.15;59.66;100404.98;5221196;56;1141078;-75
2022/06/22 21:10:42;;;;;;;5.05;2.22;;;;;;;22.04;60.98;100401.78;5136783;57;1141099;-75
2022/06/22 21:15:48;;;;;;;8.73;1.85;;;;;;;22.07;61.61;100406.78;5220455;56;1139236;-75
2022/06/22 21:21:07;;;;;;;3.05;2.00;;;;;;;21.88;61.38;100409.28;5170780;56;1139050;-75
2022/06/22 21:26:28;;;;;;;17.20;5.80;;;;;;;21.67;62.05;100413.69;5138590;56;1139097;-74
2022/06/22 21:31:33;;;;;;;16.93;11.78;;;;;;;21.57;62.53;100403.73;5103964;57;1141468;-75
2022/06/22 21:37:02;;;;;;;15.88;11.50;;;;;;;21.39;62.25;100412.26;4954699;58;1143190;-75
2022/06/22 21:42:18;;;;;;;7.08;5.15;;;;;;;21.31;62.72;100412.39;5102013;57;1143541;-74
2022/06/22 21:47:50;;;;;;;5.45;2.80;;;;;;;21.32;62.99;100410.54;5208719;56;1139005;-74
2022/06/22 21:53:25;;;;;;;19.15;9.00;;;;;;;21.32;62.70;100426.17;5297328;55;1136912;-74
2022/06/22 21:58:52;;;;;;;14.10;6.75;;;;;;;21.33;63.07;100430.53;5237340;55;1139040;-73
2022/06/22 22:04:24;;;;;;;22.17;7.62;;;;;;;21.13;63.50;100435.33;5232054;56;1139159;-74
2022/06/22 22:09:37;;;;;;;11.63;6.37;;;;;;;20.95;64.14;100430.35;5231697;56;1141077;-75
2022/06/22 22:15:01;;;;;;;6.62;4.40;;;;;;;20.84;64.58;100424.95;5230485;55;1141392;-75
2022/06/22 22:20:32;;;;;;;5.85;3.85;;;;;;;20.75;65.05;100422.06;5232060;56;1139250;-75
2022/06/22 22:25:42;;;;;;;9.05;4.72;;;;;;;20.64;64.87;100430.58;5231445;56;1138961;-74
2022/06/22 22:30:55;;;;;;;14.58;7.20;;;;;;;20.47;65.47;100426.44;5232055;56;1139046;-73
2022/06/22 22:36:06;;;;;;;;;;;;;;;20.11;65.82;100439.19;5235853;55;1141460;-73
2022/06/22 22:41:15;;;;;;;12.47;5.67;;;;;;;19.88;66.75;100437.04;5211757;56;976407;-74
2022/06/22 22:46:32;;;;;;;13.03;5.87;;;;;;;19.83;67.76;100440.29;5164743;57;1139591;-74
2022/06/22 22:51:54;;;;;;;10.95;6.47;;;;;;;19.88;68.10;100442.41;5164562;57;1141030;-75
2022/06/22 22:57:16;;;;;;;9.94;5.40;;;;;;;19.90;68.65;100451.95;5164481;57;1141111;-74
2022/06/22 23:02:33;;;;;;;11.57;4.22;;;;;;;19.90;68.68;100447.92;5119421;57;1138918;-74
2022/06/22 23:07:38;;;;;;;8.45;3.65;;;;;;;19.86;68.39;100449.83;5164492;57;1141287;-73
2022/06/22 23:12:44;;;;;;;10.20;3.60;;;;;;;19.75;69.04;100443.53;5079520;58;1139035;-74
2022/06/22 23:17:50;;;;;;;5.03;3.58;;;;;;;19.76;69.42;100445.20;5152918;57;1139121;-74
2022/06/22 23:22:59;;;;;;;2.75;2.52;;;;;;;19.77;69.40;100436.97;5151437;57;1136815;-74
2022/06/22 23:28:06;;;;;;;4.05;3.40;;;;;;;19.78;69.62;100441.33;5151406;56;1137148;-73
2022/06/22 23:33:21;;;;;;;4.50;3.20;;;;;;;19.72;69.42;100446.06;5151393;56;1136909;-74
2022/06/22 23:38:28;;;;;;;7.17;3.55;;;;;;;19.62;69.44;100456.20;5020734;58;1137063;-73
2022/06/22 23:43:34;;;;;;;4.10;3.35;;;;;;;19.59;70.09;100448.52;5173329;56;1137014;-74
2022/06/22 23:48:44;;;;;;;6.03;3.20;;;;;;;19.61;70.36;100449.17;5173227;55;1137167;-74
2022/06/22 23:54:00;;;;;;;3.27;2.60;;;;;;;19.58;70.26;100446.84;5159932;57;1136910;-74
2022/06/22 23:59:11;;;;;;;4.53;2.87;;;;;;;19.49;69.33;100461.30;5076323;58;1137187;-73
